Time;durP1;ratioP1;P1;durP2;ratioP2;P2;SDS_P1;SDS_P2;PMS_P1;PMS_P2;Temp;Humidity;BMP_temperature;BMP_pressure;BME280_temperature;BME280_humidity;BME280_pressure;Samples;Min_cycle;Max_cycle;Signal;HPM_P1;HPM_P2
2021/03/29 08:43:45;;;;;;;;;;;;;;;8.57;49.67;99220.17;1753498;78;20488;-60
2021/03/29 08:46:13;;;;;;;;;;;;;;;8.58;50.48;99217.83;1752015;79;20570;-62
2021/03/29 08:51:53;;;;;;;;;;;;;;;8.65;50.73;99212.11;1757718;79;20624;-65
2021/03/29 08:54:21;;;;;;;;;;;;;;;8.78;50.86;99213.48;1774763;79;21785;-70
2021/03/29 08:56:50;;;;;;;;;;;;;;;8.88;48.30;99217.02;1768059;78;20409;-64
2021/03/29 08:59:18;;;;;;;;;;;;;;;8.88;48.80;99213.09;1764627;78;20459;-64
2021/03/29 09:01:46;;;;;;;;;;;;;;;8.88;49.21;99213.91;1703608;79;20766;-63
2021/03/29 09:04:14;;;;;;;;;;;;;;;8.87;48.49;99215.41;1751885;79;20713;-63
2021/03/29 09:06:42;;;;;;;;;;;;;;;8.82;48.47;99220.44;1752748;79;22008;-66
2021/03/29 09:09:14;;;;;;;;;;;;;;;8.76;49.43;99224.66;1754496;79;20589;-61
2021/03/29 09:11:45;;;;;;;;;;;;;;;8.72;48.50;99222.61;1752971;80;20228;-60
2021/03/29 09:14:17;;;;;;;;;;;;;;;8.71;48.29;99217.09;1755433;79;20772;-62
2021/03/29 09:16:46;;;;;;;;;;;;;;;8.78;49.61;99225.78;1759049;79;20450;-62
2021/03/29 09:19:18;;;;;;;;;;;;;;;8.93;47.34;99214.11;1754968;79;22123;-61
2021/03/29 09:21:54;;;;;;;;;;;;;;;9.11;47.62;99207.50;1758715;79;20169;-63
2021/03/29 09:24:24;;;;;;;;;;;;;;;9.23;48.18;99208.52;1746952;79;20479;-61
2021/03/29 09:26:58;;;;;;;;;;;;;;;9.33;48.99;99208.44;1761861;79;20199;-64
2021/03/29 09:29:32;;;;;;;;;;;;;;;9.44;47.78;99202.30;1757934;79;20839;-62
2021/03/29 09:32:09;;;;;;;;;;;;;;;9.55;46.99;99212.18;1751614;79;21906;-63
2021/03/29 09:34:37;;;;;;;;;;;;;;;9.65;47.21;99211.28;1747710;80;20668;-62
2021/03/29 09:37:19;;;;;;;;;;;;;;;9.70;46.20;99216.22;1749403;80;20526;-64
2021/03/29 09:39:48;;;;;;;;;;;;;;;9.65;46.94;99210.75;1761903;79;20638;-62
2021/03/29 09:42:17;;;;;;;;;;;;;;;9.50;47.59;99211.98;1749164;79;20551;-67
2021/03/29 09:44:44;;;;;;;;;;;;;;;9.32;48.47;99218.63;1753708;79;21656;-68
2021/03/29 09:47:13;;;;;;;;;;;;;;;9.18;47.90;99220.12;1752500;79;20606;-65
2021/03/29 09:49:51;;;;;;;;;;;;;;;9.13;48.63;99227.79;1701305;80;20493;-63
2021/03/29 09:52:19;;;;;;;;;;;;;;;9.23;47.34;99221.63;1751268;79;20842;-69
2021/03/29 09:54:49;;;;;;;;;;;;;;;9.43;46.47;99219.86;1747617;80;20769;-68
2021/03/29 09:57:21;;;;;;;;;;;;;;;9.67;46.18;99218.42;1751864;79;22037;-70
2021/03/29 09:59:56;;;;;;;;;;;;;;;9.91;46.71;99217.00;1752205;79;20407;-68
2021/03/29 10:02:25;;;;;;;;;;;;;;;10.03;44.91;99226.67;1743609;81;20620;-66
2021/03/29 10:05:11;;;;;;;;;;;;;;;9.96;45.66;99217.99;1744749;79;20577;-63
2021/03/29 10:07:54;;;;;;;;;;;;;;;9.83;45.85;99227.20;1749510;79;20671;-67
2021/03/29 10:10:39;;;;;;;;;;;;;;;9.66;45.19;99222.87;1744066;79;21255;-67
2021/03/29 10:13:10;;;;;;;;;;;;;;;9.63;45.77;99222.48;1712718;81;20388;-66
2021/03/29 10:15:39;;;;;;;;;;;;;;;9.74;45.92;99215.30;1709625;81;20236;-67
2021/03/29 10:18:11;;;;;;;;;;;;;;;9.90;44.19;99219.32;1710341;81;20419;-64
2021/03/29 10:20:41;;;;;;;;;;;;;;;9.96;44.82;99216.69;1710583;81;20613;-69
2021/03/29 10:23:30;;;;;;;;;;;;;;;9.94;44.78;99219.23;1708419;81;21845;-66
2021/03/29 10:26:19;;;;;;;;;;;;;;;9.89;45.14;99225.58;1711797;81;20543;-63
2021/03/29 10:28:57;;;;;;;;;;;;;;;9.77;45.84;99222.27;1707219;81;20489;-65
2021/03/29 10:31:25;;;;;;;;;;;;;;;9.71;45.16;99225.71;1665624;83;20568;-64
2021/03/29 10:33:55;;;;;;;;;;;;;;;9.72;44.05;99225.20;1674299;83;20622;-66
2021/03/29 10:36:23;;;;;;;;;;;;;;;9.81;44.79;99218.72;1659490;84;21858;-60
2021/03/29 10:38:53;;;;;;;;;;;;;;;10.01;45.43;99211.61;1664413;83;20576;-63
2021/03/29 10:41:21;;;;;;;;;;;;;;;10.23;44.93;99217.98;1666345;83;20462;-63
2021/03/29 10:43:51;;;;;;;;;;;;;;;10.31;44.86;99217.23;1661263;84;20564;-63
2021/03/29 10:46:20;;;;;;;;;;;;;;;10.30;44.18;99217.47;1664917;83;20615;-62
2021/03/29 10:48:48;;;;;;;;;;;;;;;10.17;43.93;99215.15;1669097;85;23372;-63
2021/03/29 10:51:16;;;;;;;;;;;;;;;10.08;44.63;99208.49;1657514;84;20547;-65
2021/03/29 10:53:45;;;;;;;;;;;;;;;10.12;44.96;99212.81;1650336;84;20649;-63
2021/03/29 10:56:13;;;;;;;;;;;;;;;10.28;45.00;99219.48;1652587;84;20528;-63
2021/03/29 10:58:42;;;;;;;;;;;;;;;10.49;44.49;99213.45;1653962;84;20514;-63
2021/03/29 11:01:11;;;;;;;;;;;;;;;10.64;45.25;99219.76;1660452;84;21969;-63
2021/03/29 11:03:40;;;;;;;;;;;;;;;10.59;45.01;99218.23;1657236;84;20236;-64
2021/03/29 11:06:08;;;;;;;;;;;;;;;10.45;45.22;99220.62;1665045;84;20458;-62
2021/03/29 11:08:36;;;;;;;;;;;;;;;10.34;46.19;99210.77;1666017;83;20665;-62
2021/03/29 11:11:04;;;;;;;;;;;;;;;10.26;45.70;99217.56;1670413;83;20553;-63
2021/03/29 11:13:33;;;;;;;;;;;;;;;10.18;44.43;99220.71;1651941;84;21983;-61
2021/03/29 11:16:02;;;;;;;;;;;;;;;10.19;43.76;99214.95;1726512;81;20709;-62
2021/03/29 11:18:35;;;;;;;;;;;;;;;10.28;44.46;99205.03;1718312;81;20667;-62
2021/03/29 11:21:07;;;;;;;;;;;;;;;10.34;43.98;99206.32;1724231;81;20647;-62
2021/03/29 11:23:35;;;;;;;;;;;;;;;10.43;44.90;99218.22;1731147;81;20610;-68
2021/03/29 11:26:07;;;;;;;;;;;;;;;10.50;44.28;99211.62;1719131;81;20493;-64
2021/03/29 11:28:44;;;;;;;;;;;;;;;10.47;44.44;99215.97;1716534;81;20546;-68
2021/03/29 11:31:12;;;;;;;;;;;;;;;10.42;44.27;99210.54;1726663;81;20217;-69
2021/03/29 11:33:40;;;;;;;;;;;;;;;10.38;44.60;99215.89;1724136;81;20521;-69
2021/03/29 11:36:10;;;;;;;;;;;;;;;10.43;44.10;99211.66;1726086;81;20491;-63
2021/03/29 11:38:39;;;;;;;;;;;;;;;10.53;43.89;99215.13;1722338;81;22099;-64
2021/03/29 11:41:07;;;;;;;;;;;;;;;10.62;43.90;99215.20;1729661;81;20401;-61
2021/03/29 11:43:37;;;;;;;;;;;;;;;10.73;43.62;99211.94;1724527;81;20588;-65
2021/03/29 11:46:05;;;;;;;;;;;;;;;10.79;42.79;99205.02;1725676;81;20381;-68
2021/03/29 11:48:39;;;;;;;;;;;;;;;10.83;43.93;99209.64;1728318;81;20617;-65
2021/03/29 11:51:31;;;;;;;;;;;;;;;10.93;44.67;99205.25;1722709;81;22306;-70
2021/03/29 11:54:00;;;;;;;;;;;;;;;10.99;43.69;99197.02;1720435;81;20519;-66
2021/03/29 11:56:28;;;;;;;;;;;;;;;10.96;44.08;99197.73;1724009;81;20444;-71
2021/03/29 11:58:59;;;;;;;;;;;;;;;10.95;42.89;99197.93;1726994;81;20503;-72
2021/03/29 12:01:43;;;;;;;;;;;;;;;11.03;43.36;99191.11;1726158;81;20750;-65
2021/03/29 12:04:35;;;;;;;;;;;;;;;11.15;44.47;99199.95;1726174;81;21902;-67
2021/03/29 12:07:27;;;;;;;;;;;;;;;11.13;43.10;99197.23;1724435;81;20422;-69
2021/03/29 12:11:47;;;;;;;;;;;;;;;11.05;42.64;99194.84;1738817;81;20323;-65
2021/03/29 12:12:21;;;;;;;;;;;;;;;11.05;43.51;99194.84;1713920;81;20315;-67
2021/03/29 12:14:50;;;;;;;;;;;;;;;11.03;42.79;99191.61;1714876;81;20557;-66
2021/03/29 12:17:18;;;;;;;;;;;;;;;11.09;43.32;99196.05;1716769;81;22050;-66
2021/03/29 12:19:46;;;;;;;;;;;;;;;11.20;44.68;99191.41;1716960;81;20671;-66
2021/03/29 12:22:25;;;;;;;;;;;;;;;11.44;43.83;99176.66;1714986;81;20232;-63
2021/03/29 12:24:54;;;;;;;;;;;;;;;11.58;43.92;99172.38;1715011;81;20504;-66
2021/03/29 12:27:22;;;;;;;;;;;;;;;11.68;43.32;99172.67;1699844;81;20639;-64
2021/03/29 12:29:55;;;;;;;;;;;;;;;11.70;42.39;99186.45;1703763;83;21919;-67
2021/03/29 12:32:23;;;;;;;;;;;;;;;11.61;41.41;99182.47;1704411;83;20286;-65
2021/03/29 12:34:56;;;;;;;;;;;;;;;11.48;42.66;99178.64;1704639;81;20603;-64
2021/03/29 12:37:28;;;;;;;;;;;;;;;11.32;43.29;99168.63;1717264;81;20531;-68
2021/03/29 12:40:02;;;;;;;;;;;;;;;11.16;44.02;99175.77;1695523;82;20564;-66
2021/03/29 12:42:31;;;;;;;;;;;;;;;11.11;45.37;99171.63;1698513;81;20417;-65
2021/03/29 12:44:59;;;;;;;;;;;;;;;11.09;43.94;99169.74;1713309;81;20656;-66
2021/03/29 12:47:29;;;;;;;;;;;;;;;11.06;44.64;99174.91;1711021;81;20465;-63
2021/03/29 12:50:08;;;;;;;;;;;;;;;11.06;44.22;99168.33;1713568;81;20517;-67
2021/03/29 12:52:37;;;;;;;;;;;;;;;11.07;43.46;99175.21;1706611;81;20608;-68
2021/03/29 12:55:07;;;;;;;;;;;;;;;11.07;43.62;99168.63;1710350;81;21840;-64
2021/03/29 12:57:35;;;;;;;;;;;;;;;11.09;43.98;99164.48;1705851;81;20484;-63
2021/03/29 13:00:08;;;;;;;;;;;;;;;11.09;44.14;99177.13;1700379;81;20487;-68
2021/03/29 13:02:37;;;;;;;;;;;;;;;11.05;43.29;99168.03;1707840;82;20558;-61
2021/03/29 13:05:10;;;;;;;;;;;;;;;11.05;43.92;99170.66;1715451;81;20599;-65
2021/03/29 13:07:54;;;;;;;;;;;;;;;11.02;44.31;99180.31;1703896;81;22081;-63
2021/03/29 13:11:05;;;;;;;;;;;;;;;10.97;43.80;99173.55;1717402;81;20570;-61
2021/03/29 13:12:46;;;;;;;;;;;;;;;10.93;44.41;99179.75;1687460;81;20487;-61
2021/03/29 13:15:15;;;;;;;;;;;;;;;10.92;44.81;99174.70;1697724;81;20472;-60
2021/03/29 13:17:45;;;;;;;;;;;;;;;10.90;44.64;99181.48;1705880;82;20503;-60
2021/03/29 13:20:15;;;;;;;;;;;;;;;10.89;44.80;99173.80;1696402;83;20679;-60
2021/03/29 13:22:44;;;;;;;;;;;;;;;10.91;44.71;99179.66;1691735;82;20570;-60
2021/03/29 13:25:15;;;;;;;;;;;;;;;10.92;44.59;99179.45;1702076;81;20454;-62
2021/03/29 13:27:43;;;;;;;;;;;;;;;10.94;45.03;99172.67;1703873;81;20649;-62
2021/03/29 13:30:12;;;;;;;;;;;;;;;10.98;44.95;99171.72;1726328;82;20613;-62
2021/03/29 13:32:41;;;;;;;;;;;;;;;10.95;44.59;99175.06;1708303;81;21878;-61
2021/03/29 13:35:09;;;;;;;;;;;;;;;10.96;44.90;99174.05;1702756;82;20153;-61
2021/03/29 13:37:40;;;;;;;;;;;;;;;10.94;44.35;99176.11;1723536;81;20429;-60
2021/03/29 13:40:11;;;;;;;;;;;;;;;10.95;43.87;99169.00;1700566;81;20592;-61
2021/03/29 13:42:38;;;;;;;;;;;;;;;10.93;44.24;99169.23;1706827;82;20660;-62
2021/03/29 13:45:07;;;;;;;;;;;;;;;10.90;44.48;99170.95;1687428;83;22031;-60
2021/03/29 13:47:35;;;;;;;;;;;;;;;10.86;44.42;99168.97;1721808;81;20482;-64
2021/03/29 13:50:05;;;;;;;;;;;;;;;10.85;44.55;99167.36;1706559;81;33505;-64
2021/03/29 13:52:32;;;;;;;;;;;;;;;10.85;44.76;99158.96;1705897;81;20721;-62
2021/03/29 13:55:01;;;;;;;;;;;;;;;10.88;44.98;99159.03;1709750;81;20494;-63
2021/03/29 13:57:29;;;;;;;;;;;;;;;10.93;44.99;99159.22;1705951;82;21913;-64
2021/03/29 13:59:57;;;;;;;;;;;;;;;11.00;45.23;99160.48;1711512;81;20396;-70
2021/03/29 14:02:25;;;;;;;;;;;;;;;11.06;44.64;99160.44;1700884;83;20516;-63
2021/03/29 14:04:53;;;;;;;;;;;;;;;11.11;45.22;99160.59;1706649;82;20781;-62
